Time;durP1;ratioP1;P1;durP2;ratioP2;P2;SDS_P1;SDS_P2;PMS_P1;PMS_P2;Temp;Humidity;BMP_temperature;BMP_pressure;BME280_temperature;BME280_humidity;BME280_pressure;Samples;Min_cycle;Max_cycle;Signal;HPM_P1;HPM_P2
2022/04/22 00:02:11;;;;;;;7.60;5.25;;;;;;;10.74;47.91;98243.31;5125153;28;20059;-70
2022/04/22 00:04:43;;;;;;;6.65;4.57;;;;;;;10.75;47.72;98237.03;5125919;28;20039;-70
2022/04/22 00:07:11;;;;;;;7.85;5.03;;;;;;;10.77;47.61;98235.13;5125883;28;20039;-70
2022/04/22 00:09:41;;;;;;;6.15;4.95;;;;;;;10.72;47.77;98239.91;5126091;28;20367;-70
2022/04/22 00:12:12;;;;;;;7.30;5.88;;;;;;;10.75;47.65;98237.03;5126190;28;20072;-70
2022/04/22 00:14:42;;;;;;;6.60;5.63;;;;;;;10.66;48.12;98233.25;5125792;28;20292;-70
2022/04/22 00:17:11;;;;;;;7.03;4.68;;;;;;;10.23;48.32;98180.75;5125795;28;20031;-70
2022/04/22 00:19:43;;;;;;;6.75;5.70;;;;;;;10.58;48.19;98233.81;5125354;28;20070;-70
2022/04/22 00:22:12;;;;;;;7.55;5.65;;;;;;;10.06;48.13;98137.94;5125730;28;20067;-69
2022/04/22 00:24:42;;;;;;;7.13;5.55;;;;;;;10.53;48.39;98222.72;5126383;28;20036;-69
2022/04/22 00:27:12;;;;;;;6.20;5.45;;;;;;;10.54;48.58;98224.41;5125802;28;20077;-69
2022/04/22 00:29:42;;;;;;;10.05;5.15;;;;;;;10.62;48.21;98229.16;5125271;28;20028;-70
2022/04/22 00:32:12;;;;;;;8.45;5.85;;;;;;;10.70;48.04;98229.44;5125989;28;20064;-70
2022/04/22 00:34:44;;;;;;;5.88;4.97;;;;;;;10.34;48.58;98168.53;5125659;28;20046;-69
2022/04/22 00:37:12;;;;;;;5.70;4.72;;;;;;;10.54;48.70;98219.09;5125940;28;20085;-70
2022/04/22 00:39:43;;;;;;;9.75;5.35;;;;;;;10.52;48.47;98215.72;5125856;28;20043;-70
2022/04/22 00:42:13;;;;;;;11.93;5.57;;;;;;;10.48;48.74;98214.25;5125777;28;20044;-69
2022/04/22 00:44:43;;;;;;;7.78;5.50;;;;;;;10.46;48.50;98208.22;5125554;28;20035;-69
2022/04/22 00:47:13;;;;;;;8.48;6.28;;;;;;;10.47;48.74;98212.56;5125806;28;20039;-70
2022/04/22 00:49:45;;;;;;;7.38;5.68;;;;;;;10.49;48.96;98205.34;5125781;28;20051;-70
2022/04/22 00:52:14;;;;;;;6.68;5.28;;;;;;;10.47;48.65;98201.13;5125497;28;20040;-69
2022/04/22 00:54:43;;;;;;;5.88;4.65;;;;;;;10.46;48.59;98204.72;5125748;28;20040;-70
2022/04/22 00:57:15;;;;;;;5.47;4.85;;;;;;;10.50;48.37;98201.75;5125413;28;20042;-69
2022/04/22 00:59:44;;;;;;;6.72;5.30;;;;;;;10.47;48.59;98203.78;5125668;28;20039;-69
2022/04/22 01:02:14;;;;;;;7.35;4.88;;;;;;;10.45;48.66;98200.38;5125153;28;20059;-70
2022/04/22 01:10:26;;;;;;;11.05;5.38;;;;;;;10.40;48.75;98192.78;5125395;28;20093;-69
2022/04/22 01:12:58;;;;;;;6.40;5.22;;;;;;;10.36;48.46;98191.31;5124747;28;20047;-69
2022/04/22 01:15:31;;;;;;;7.60;5.63;;;;;;;10.01;49.02;98145.34;5124478;28;20050;-69
2022/04/22 01:18:03;;;;;;;8.90;5.82;;;;;;;9.97;48.96;98135.94;5125272;28;20284;-69
2022/04/22 01:20:37;;;;;;;7.60;6.03;;;;;;;10.22;49.08;98179.06;5125370;28;20284;-70
2022/04/22 01:23:11;;;;;;;7.23;6.10;;;;;;;10.21;49.00;98181.81;5125387;28;20044;-70
2022/04/22 01:25:44;;;;;;;9.57;5.65;;;;;;;10.22;48.96;98172.94;5125196;28;20040;-70
2022/04/22 01:28:16;;;;;;;7.47;5.95;;;;;;;10.14;49.13;98173.47;5125104;28;20040;-69
2022/04/22 01:30:48;;;;;;;6.50;5.40;;;;;;;10.11;49.20;98168.41;5127521;28;20085;-69
2022/04/22 01:33:21;;;;;;;6.78;5.05;;;;;;;9.69;49.42;98113.25;5129175;28;20061;-69
2022/04/22 01:35:53;;;;;;;6.53;5.88;;;;;;;10.01;49.53;98161.22;5128923;27;20085;-69
2022/04/22 01:38:26;;;;;;;7.82;5.60;;;;;;;9.96;49.67;98156.28;5128881;28;20161;-70
2022/04/22 01:40:59;;;;;;;9.00;5.82;;;;;;;9.91;49.65;98151.31;5128206;28;20036;-69
2022/04/22 01:43:31;;;;;;;7.03;5.05;;;;;;;9.87;49.86;98152.47;5128688;28;20084;-69
2022/04/22 01:46:04;;;;;;;6.93;4.97;;;;;;;9.89;50.07;98149.72;5128697;28;20040;-70
2022/04/22 01:48:36;;;;;;;6.97;5.70;;;;;;;9.74;50.55;98159.59;5128963;28;20047;-70
2022/04/22 01:51:08;;;;;;;6.43;5.32;;;;;;;9.39;50.69;98101.22;5128821;28;20039;-69
2022/04/22 01:53:42;;;;;;;7.32;5.93;;;;;;;9.75;50.30;98142.78;5128589;27;20096;-69
2022/04/22 01:56:14;;;;;;;8.00;5.75;;;;;;;9.78;50.18;98134.63;5128516;28;20040;-69
2022/04/22 01:58:46;;;;;;;7.68;6.03;;;;;;;9.77;50.28;98132.06;5128664;28;20084;-69
2022/04/22 02:01:18;;;;;;;8.98;6.00;;;;;;;9.76;50.46;98139.16;5128162;28;20112;-70
2022/04/22 02:03:50;;;;;;;7.93;5.90;;;;;;;9.73;50.48;98133.25;5127429;28;20039;-69
2022/04/22 02:06:23;;;;;;;8.07;6.88;;;;;;;8.82;50.61;98040.00;5128598;28;20040;-69
2022/04/22 02:08:57;;;;;;;5.97;5.35;;;;;;;8.49;51.01;97946.28;5128254;28;20039;-69
2022/04/22 02:11:29;;;;;;;7.20;6.10;;;;;;;9.62;50.56;98115.50;5128490;28;20043;-69
2022/04/22 02:14:01;;;;;;;7.65;5.30;;;;;;;9.56;51.30;98115.94;5128427;28;20081;-69
2022/04/22 02:16:34;;;;;;;8.85;6.07;;;;;;;9.58;50.88;98112.22;5128054;28;20039;-70
2022/04/22 02:19:06;;;;;;;7.38;6.25;;;;;;;9.61;50.79;98108.50;5128330;28;20283;-69
2022/04/22 02:21:38;;;;;;;6.78;5.53;;;;;;;9.61;51.09;98114.66;5127907;28;20043;-69
2022/04/22 02:24:13;;;;;;;7.75;5.63;;;;;;;9.60;50.93;98107.66;5128119;28;20092;-70
2022/04/22 02:29:48;;;;;;;8.30;5.40;;;;;;;9.55;50.69;98106.31;5085787;28;19916;-70
2022/04/22 02:32:18;;;;;;;8.07;6.00;;;;;;;9.56;50.69;98106.19;5085691;28;20082;-69
2022/04/22 02:34:48;;;;;;;7.05;5.60;;;;;;;9.57;50.73;98105.22;5097029;28;20146;-70
2022/04/22 02:37:18;;;;;;;7.10;6.28;;;;;;;9.55;51.01;98101.00;5128158;28;20107;-69
2022/04/22 02:39:50;;;;;;;8.85;6.20;;;;;;;9.58;50.71;98111.38;5127609;28;20103;-70
2022/04/22 02:47:58;;;;;;;9.20;6.25;;;;;;;9.53;50.80;98100.28;5127662;28;20325;-69
2022/04/22 02:50:30;;;;;;;13.68;6.00;;;;;;;9.54;50.68;98099.31;5127325;28;20101;-70
2022/04/22 02:53:03;;;;;;;10.50;5.80;;;;;;;8.23;50.75;97897.06;5127696;28;20051;-69
2022/04/22 02:55:38;;;;;;;7.57;6.53;;;;;;;9.43;50.99;98108.00;5127305;27;20040;-70
2022/04/22 02:58:10;;;;;;;8.20;5.95;;;;;;;9.45;50.59;98098.16;5127507;27;20043;-69
2022/04/22 03:00:43;;;;;;;10.10;6.32;;;;;;;8.43;50.16;97919.47;5127477;28;20100;-70
2022/04/22 03:03:15;;;;;;;8.18;6.03;;;;;;;8.89;50.02;97986.63;5086632;28;20293;-69
2022/04/22 03:05:47;;;;;;;10.88;6.75;;;;;;;9.56;49.82;98092.13;5085567;28;20040;-70
2022/04/22 03:08:20;;;;;;;9.05;6.07;;;;;;;9.61;49.77;98092.63;5086539;28;20040;-70
2022/04/22 03:10:53;;;;;;;9.13;6.60;;;;;;;9.65;49.88;98093.25;5086255;28;20335;-70
2022/04/22 03:13:25;;;;;;;8.55;6.00;;;;;;;8.99;49.59;97992.09;5086212;28;20247;-71
2022/04/22 03:15:59;;;;;;;12.68;6.75;;;;;;;9.63;49.67;98101.31;5085646;28;20048;-69
2022/04/22 03:18:31;;;;;;;8.52;7.10;;;;;;;9.65;49.49;98080.88;5086078;28;20036;-70
2022/04/22 03:21:03;;;;;;;8.27;6.53;;;;;;;9.39;49.66;98298.69;5086336;28;20040;-69
2022/04/22 03:23:36;;;;;;;8.60;6.10;;;;;;;9.66;49.88;98082.56;5085447;28;20040;-70
2022/04/22 03:26:11;;;;;;;8.25;6.97;;;;;;;9.69;49.72;98079.72;5085391;28;20062;-70
2022/04/22 03:28:43;;;;;;;7.57;5.90;;;;;;;9.72;49.52;98068.91;5085968;28;20086;-70
2022/04/22 03:31:15;;;;;;;9.68;6.82;;;;;;;9.72;49.38;98073.34;5085244;28;20090;-69
2022/04/22 03:33:47;;;;;;;8.30;6.95;;;;;;;9.72;49.56;98079.50;5085818;28;20216;-69
2022/04/22 03:36:20;;;;;;;8.18;6.80;;;;;;;8.84;49.45;97927.97;5085108;28;20082;-69
2022/04/22 03:38:52;;;;;;;8.05;7.15;;;;;;;9.69;49.63;98079.72;5085972;28;20063;-70
2022/04/22 03:41:26;;;;;;;8.23;6.45;;;;;;;9.53;49.72;98055.31;5085791;28;20040;-70
2022/04/22 03:43:59;;;;;;;8.17;7.33;;;;;;;9.72;49.65;98078.66;5085527;28;20262;-70
2022/04/22 03:46:31;;;;;;;10.27;7.25;;;;;;;9.46;50.06;98033.75;5085766;28;20346;-70
2022/04/22 03:49:04;;;;;;;8.13;6.63;;;;;;;9.70;49.80;98065.53;5085560;28;20142;-69
2022/04/22 03:51:37;;;;;;;7.05;6.00;;;;;;;9.66;49.88;98069.34;5084639;28;20311;-69
2022/04/22 03:54:09;;;;;;;8.95;7.35;;;;;;;9.69;49.68;98069.13;5084496;28;20366;-69
2022/04/22 03:59:32;;;;;;;14.05;7.00;;;;;;;9.70;50.07;98073.47;5085422;28;20236;-70
2022/04/22 04:02:05;;;;;;;10.35;7.20;;;;;;;9.41;49.70;98029.75;5107825;28;20308;-70
2022/04/22 04:04:37;;;;;;;8.75;5.63;;;;;;;9.68;49.91;98085.97;5126196;28;20089;-70
2022/04/22 04:07:10;;;;;;;8.63;6.78;;;;;;;9.70;49.96;98081.41;5126223;28;20043;-69
2022/04/22 04:18:12;;;;;;;8.40;6.38;;;;;;;9.68;49.76;98083.31;5125850;28;20043;-69
2022/04/22 04:23:37;;;;;;;8.45;7.28;;;;;;;9.73;49.87;98088.28;5102019;28;20347;-69
2022/04/22 04:26:09;;;;;;;9.27;6.78;;;;;;;9.76;49.31;98086.25;5125297;28;20047;-69
2022/04/22 04:28:47;;;;;;;8.40;7.25;;;;;;;9.80;49.71;98090.38;5125646;28;20039;-69
2022/04/22 04:31:20;;;;;;;9.95;7.85;;;;;;;9.83;49.47;98090.16;5125032;28;20101;-70
2022/04/22 04:33:52;;;;;;;10.07;7.95;;;;;;;9.85;49.27;98095.31;5125579;28;20296;-69
2022/04/22 04:36:24;;;;;;;12.10;7.85;;;;;;;9.83;49.50;98095.44;5124991;28;20043;-69
2022/04/22 04:38:56;;;;;;;8.73;6.22;;;;;;;9.87;49.41;98090.78;5125572;28;20043;-69
2022/04/22 04:41:29;;;;;;;11.68;7.93;;;;;;;9.89;49.38;98100.28;5125680;28;20036;-69
2022/04/22 04:44:02;;;;;;;8.80;7.68;;;;;;;9.90;49.36;98091.41;5125390;28;20047;-70
2022/04/22 04:46:34;;;;;;;12.20;7.65;;;;;;;9.91;49.46;98089.59;5125448;28;20044;-69
2022/04/22 04:49:06;;;;;;;9.15;7.03;;;;;;;9.87;49.71;98094.25;5125306;28;20040;-69
2022/04/22 04:51:38;;;;;;;9.43;7.32;;;;;;;9.61;49.44;98042.38;5125542;28;20044;-69
2022/04/22 04:54:11;;;;;;;9.43;7.35;;;;;;;9.91;49.65;98092.25;5125332;28;20100;-69
2022/04/22 04:56:43;;;;;;;8.50;7.18;;;;;;;9.89;49.49;98094.16;5124515;28;20035;-69
2022/04/22 04:59:16;;;;;;;9.43;7.28;;;;;;;9.89;49.50;98088.84;5125395;28;20246;-69
2022/04/22 05:01:49;;;;;;;10.02;7.32;;;;;;;9.87;49.55;98096.06;5125262;28;20051;-69
2022/04/22 05:04:22;;;;;;;9.10;8.15;;;;;;;9.80;49.78;98090.38;5125268;28;20096;-69
2022/04/22 05:06:54;;;;;;;12.52;8.98;;;;;;;9.48;50.08;98045.06;5129385;28;20089;-69
2022/04/22 05:09:26;;;;;;;11.30;8.25;;;;;;;9.71;49.97;98079.59;5129492;28;20088;-69
2022/04/22 05:11:58;;;;;;;12.57;8.38;;;;;;;9.70;50.47;98078.75;5129596;28;20089;-70
2022/04/22 05:14:32;;;;;;;11.73;8.50;;;;;;;9.74;49.91;98066.16;5129318;28;20077;-70
2022/04/22 05:17:04;;;;;;;11.80;8.23;;;;;;;9.78;49.95;98072.91;5129184;28;20036;-69
2022/04/22 05:19:37;;;;;;;11.00;8.63;;;;;;;9.75;50.33;98076.63;5129079;28;20050;-69
2022/04/22 05:22:09;;;;;;;9.15;8.10;;;;;;;9.72;50.05;98060.97;5129112;28;20043;-70
2022/04/22 05:24:39;;;;;;;12.85;8.32;;;;;;;9.75;50.08;98062.56;5129600;28;20042;-70
2022/04/22 05:27:09;;;;;;;11.48;9.13;;;;;;;9.72;50.44;98060.97;5128087;28;20100;-69
2022/04/22 05:32:39;;;;;;;11.88;8.38;;;;;;;9.60;49.75;98072.44;5129002;28;20085;-69
2022/04/22 05:35:11;;;;;;;10.50;8.70;;;;;;;9.23;49.86;98022.13;5129119;28;20246;-69
2022/04/22 05:37:48;;;;;;;13.88;10.20;;;;;;;9.61;50.37;98082.06;5128764;28;20202;-69
2022/04/22 05:40:22;;;;;;;11.68;8.50;;;;;;;9.68;49.67;98124.78;5128655;28;20043;-69
2022/04/22 05:42:55;;;;;;;11.98;8.45;;;;;;;9.62;50.11;98078.47;5128690;28;20061;-69
2022/04/22 05:45:29;;;;;;;12.75;9.48;;;;;;;9.65;49.93;98088.81;5129033;28;20047;-70
2022/04/22 05:48:01;;;;;;;15.35;8.23;;;;;;;9.66;49.80;98092.31;5127749;28;20044;-69
2022/04/22 05:50:33;;;;;;;12.75;9.32;;;;;;;9.66;49.53;98094.97;5128687;28;20093;-69
2022/04/22 05:53:05;;;;;;;14.27;9.95;;;;;;;9.36;49.52;98042.41;5128834;28;20234;-69
2022/04/22 05:55:38;;;;;;;12.85;9.32;;;;;;;9.63;49.36;98088.94;5128706;28;20044;-69
2022/04/22 05:58:10;;;;;;;15.90;9.55;;;;;;;9.65;49.42;98095.91;5128319;28;20237;-69
2022/04/22 06:00:44;;;;;;;15.23;9.02;;;;;;;8.97;49.30;98066.22;5128688;28;20081;-70
2022/04/22 06:03:16;;;;;;;14.00;8.52;;;;;;;9.53;49.37;98094.97;5127818;28;20288;-69
2022/04/22 06:05:48;;;;;;;12.40;7.80;;;;;;;9.11;49.26;98030.88;5128244;28;20245;-69
2022/04/22 06:11:10;;;;;;;14.63;8.57;;;;;;;9.43;49.47;98097.44;5128232;28;20047;-69
2022/04/22 06:13:47;;;;;;;15.07;8.80;;;;;;;9.47;49.39;98098.91;5127277;28;20047;-69
2022/04/22 06:16:20;;;;;;;11.55;8.43;;;;;;;9.46;49.74;98093.72;5125920;28;20036;-69
2022/04/22 06:18:52;;;;;;;16.33;9.35;;;;;;;9.43;50.09;98104.53;5127976;28;20080;-69
2022/04/22 06:21:25;;;;;;;14.05;9.57;;;;;;;9.46;49.98;98096.38;5128041;28;20040;-69
2022/04/22 06:23:57;;;;;;;13.60;8.63;;;;;;;9.41;50.24;98112.56;5128132;28;20085;-69
2022/04/22 06:26:29;;;;;;;13.75;9.63;;;;;;;9.31;50.79;98103.53;5128057;28;20283;-69
2022/04/22 06:29:01;;;;;;;9.90;8.32;;;;;;;9.30;50.72;98104.50;5127790;28;20047;-69
2022/04/22 06:31:37;;;;;;;14.10;10.20;;;;;;;9.27;51.11;98097.63;5126953;28;20081;-69
2022/04/22 06:34:10;;;;;;;13.38;9.48;;;;;;;9.27;51.38;98097.63;5126899;28;20318;-69
2022/04/22 06:36:43;;;;;;;12.30;8.68;;;;;;;9.36;50.96;98105.88;5127144;28;20088;-70
2022/04/22 06:39:15;;;;;;;16.67;10.45;;;;;;;9.32;51.46;98106.09;5127893;28;20044;-69
2022/04/22 06:47:30;;;;;;;13.60;10.90;;;;;;;8.22;52.87;97956.94;5127826;28;20300;-69
2022/04/22 06:50:02;;;;;;;;;;;;;;;9.08;53.67;98102.47;5127897;28;20047;-69
2022/04/22 06:52:35;;;;;;;12.95;8.63;;;;;;;9.08;52.59;98104.25;5127255;27;19920;-69
2022/04/22 06:55:09;;;;;;;13.50;10.32;;;;;;;8.99;53.22;98105.72;5127288;28;20096;-69
2022/04/22 06:57:42;;;;;;;15.35;9.73;;;;;;;8.99;52.63;98098.66;5127231;28;20040;-69
2022/04/22 07:00:16;;;;;;;13.43;9.82;;;;;;;9.05;52.33;98094.75;5127075;28;20039;-69
2022/04/22 07:02:50;;;;;;;12.48;10.40;;;;;;;9.00;53.38;98103.00;5126986;27;20093;-69
2022/04/22 07:05:23;;;;;;;10.60;9.48;;;;;;;8.96;54.18;98116.50;5126955;28;20043;-69
2022/04/22 07:07:56;;;;;;;17.17;11.85;;;;;;;8.86;54.00;98115.44;5127020;28;20040;-69
2022/04/22 07:10:29;;;;;;;16.05;10.40;;;;;;;8.80;54.64;98122.00;5126979;28;20084;-69
2022/04/22 07:13:01;;;;;;;11.80;9.63;;;;;;;8.84;53.30;98117.34;5126415;28;20039;-69
2022/04/22 07:15:35;;;;;;;16.33;10.40;;;;;;;8.85;54.32;98121.69;5127111;28;20253;-69
2022/04/22 07:18:11;;;;;;;13.23;10.05;;;;;;;8.81;55.49;98125.47;5126088;28;20050;-70
2022/04/22 07:20:44;;;;;;;12.82;8.75;;;;;;;8.85;54.46;98126.97;5127076;28;20341;-70
2022/04/22 07:23:16;;;;;;;13.27;10.93;;;;;;;8.80;55.59;98134.34;5127115;28;20043;-70
2022/04/22 07:25:49;;;;;;;15.73;10.45;;;;;;;8.76;55.19;98138.16;5126943;28;20064;-70
2022/04/22 07:28:22;;;;;;;15.23;11.40;;;;;;;8.76;56.31;98133.72;5109719;28;20035;-70
2022/04/22 07:30:55;;;;;;;13.70;10.57;;;;;;;8.41;56.16;98112.28;5127231;28;20039;-70
2022/04/22 07:33:29;;;;;;;13.20;10.85;;;;;;;8.65;56.48;98144.16;5127018;27;20040;-70
2022/04/22 07:36:02;;;;;;;15.52;10.82;;;;;;;8.35;56.34;98097.69;5127772;28;20096;-70
2022/04/22 07:38:34;;;;;;;16.08;11.32;;;;;;;8.53;57.27;98137.88;5127133;28;20043;-70
2022/04/22 07:41:08;;;;;;;14.02;11.13;;;;;;;8.47;58.44;98140.94;5125638;28;20039;-70
2022/04/22 07:49:20;;;;;;;13.85;10.43;;;;;;;8.59;58.27;98132.19;5125370;28;20063;-70
2022/04/22 07:51:52;;;;;;;13.00;9.55;;;;;;;8.57;57.84;98146.47;5126269;28;20085;-70
2022/04/22 07:54:24;;;;;;;13.57;10.10;;;;;;;8.56;58.20;98134.19;5125554;28;20039;-69
2022/04/22 07:56:57;;;;;;;12.07;10.23;;;;;;;8.30;58.66;98083.13;5126390;28;20036;-70
2022/04/22 07:59:30;;;;;;;11.88;9.93;;;;;;;8.61;58.91;98132.09;5125193;28;20036;-70
2022/04/22 08:02:02;;;;;;;12.95;10.98;;;;;;;8.60;59.28;98130.41;5126195;28;20047;-70
2022/04/22 08:04:36;;;;;;;15.35;13.45;;;;;;;8.55;59.91;98127.22;5126039;28;20044;-70
2022/04/22 08:07:09;;;;;;;13.50;10.52;;;;;;;8.53;59.41;98131.75;5125834;28;20181;-70
2022/04/22 08:09:42;;;;;;;23.70;12.68;;;;;;;8.43;59.57;98147.38;5126384;28;20043;-69
2022/04/22 08:12:12;;;;;;;14.98;12.18;;;;;;;8.41;60.32;98120.22;5126437;28;20077;-70
2022/04/22 08:14:42;;;;;;;13.35;11.07;;;;;;;6.76;60.27;97845.25;5126313;28;20040;-70
2022/04/22 08:17:12;;;;;;;16.88;11.98;;;;;;;8.47;59.66;98124.25;5126370;28;20039;-70
2022/04/22 08:19:46;;;;;;;16.38;11.00;;;;;;;8.47;59.53;98114.53;5126050;28;20043;-70
2022/04/22 08:22:18;;;;;;;15.93;11.35;;;;;;;8.56;58.85;98115.72;5126107;28;20040;-70
2022/04/22 08:24:47;;;;;;;14.38;11.45;;;;;;;7.63;60.68;98019.75;5125992;28;20036;-70
2022/04/22 08:27:18;;;;;;;15.30;12.13;;;;;;;8.60;60.03;98106.63;5126006;28;20049;-70
2022/04/22 08:29:47;;;;;;;16.05;11.02;;;;;;;8.65;59.09;98113.31;5126126;28;20093;-70
2022/04/22 08:32:17;;;;;;;15.70;11.25;;;;;;;8.71;59.10;98105.91;5126562;28;20027;-70
2022/04/22 08:34:51;;;;;;;18.52;11.98;;;;;;;8.71;59.75;98111.19;5125893;28;20129;-70
2022/04/22 08:37:24;;;;;;;16.85;11.90;;;;;;;8.78;59.77;98109.84;5125968;28;20140;-70
2022/04/22 08:39:57;;;;;;;14.85;11.57;;;;;;;8.87;59.70;98112.69;5124982;28;20039;-70
2022/04/22 08:42:30;;;;;;;18.55;11.63;;;;;;;7.74;59.84;97926.78;5126003;28;20043;-70
2022/04/22 08:45:02;;;;;;;17.30;12.18;;;;;;;8.99;61.50;98105.72;5125532;28;20069;-70
2022/04/22 08:50:27;;;;;;;16.85;13.32;;;;;;;8.02;61.12;97945.09;5125658;28;20039;-70
2022/04/22 08:53:05;;;;;;;17.10;11.85;;;;;;;9.04;61.88;98102.78;5125795;28;20081;-70
2022/04/22 08:55:38;;;;;;;15.68;11.70;;;;;;;9.07;61.14;98108.69;5125769;28;20059;-70
2022/04/22 08:58:11;;;;;;;15.48;11.60;;;;;;;9.07;60.63;98108.69;5125792;28;20043;-70
2022/04/22 09:00:45;;;;;;;16.75;11.75;;;;;;;9.07;60.20;98103.41;5125026;28;20040;-70
2022/04/22 09:03:17;;;;;;;14.82;11.63;;;;;;;9.19;59.99;98104.38;5105596;28;20040;-69
2022/04/22 09:05:51;;;;;;;16.08;11.90;;;;;;;9.20;60.77;98106.94;5105466;28;20052;-70
2022/04/22 09:08:24;;;;;;;19.48;11.90;;;;;;;8.65;59.99;98012.94;5104773;28;20040;-70
2022/04/22 09:11:03;;;;;;;12.93;10.30;;;;;;;9.19;60.29;98097.28;5104889;28;20040;-70
2022/04/22 09:13:35;;;;;;;13.95;11.85;;;;;;;9.24;59.94;98089.91;5105333;28;20044;-70
2022/04/22 09:16:08;;;;;;;14.88;11.15;;;;;;;9.00;59.88;98051.94;5104528;28;20040;-70
2022/04/22 09:18:40;;;;;;;13.77;11.60;;;;;;;9.23;60.63;98096.16;5105434;28;20082;-69
2022/04/22 09:21:17;;;;;;;15.70;11.63;;;;;;;8.91;62.17;98047.28;5105316;28;20346;-70
2022/04/22 09:23:50;;;;;;;17.95;12.32;;;;;;;9.22;60.59;98091.81;5104864;28;20044;-70
2022/04/22 09:26:24;;;;;;;16.90;13.02;;;;;;;9.32;60.56;98099.94;5104831;28;20089;-70
2022/04/22 09:28:57;;;;;;;16.80;14.25;;;;;;;8.32;60.77;97928.97;5104918;28;20036;-70
2022/04/22 09:31:31;;;;;;;16.75;12.55;;;;;;;9.39;61.49;98095.06;5104027;28;20044;-70
2022/04/22 09:34:03;;;;;;;15.55;12.13;;;;;;;9.46;60.77;98088.44;5104857;28;20061;-70
2022/04/22 09:45:08;;;;;;;13.82;12.30;;;;;;;8.16;61.74;97886.09;5104654;28;20097;-70
2022/04/22 09:47:41;;;;;;;13.63;10.70;;;;;;;9.43;61.45;98097.44;5105083;28;20036;-70
2022/04/22 09:50:16;;;;;;;15.98;11.65;;;;;;;9.34;61.52;98061.03;5104793;28;20040;-69
2022/04/22 09:52:50;;;;;;;15.40;12.43;;;;;;;9.25;61.70;98041.38;5107679;28;20047;-70
2022/04/22 09:55:24;;;;;;;17.30;12.52;;;;;;;9.62;61.62;98086.38;5107631;28;20257;-70
2022/04/22 09:57:59;;;;;;;13.37;11.93;;;;;;;9.59;61.75;98082.16;5108374;28;20086;-69
2022/04/22 10:00:33;;;;;;;14.00;11.55;;;;;;;9.57;61.33;98062.06;5108129;28;20044;-70
2022/04/22 10:03:09;;;;;;;14.77;10.98;;;;;;;9.67;62.04;98083.41;5127825;28;20063;-70
2022/04/22 10:05:45;;;;;;;13.10;11.73;;;;;;;9.67;61.23;98083.41;5111631;28;20104;-70
2022/04/22 10:08:21;;;;;;;12.23;10.93;;;;;;;9.67;62.45;98092.19;5128815;28;20059;-69
2022/04/22 10:10:55;;;;;;;16.92;12.48;;;;;;;9.66;62.05;98079.09;5128531;28;20040;-70
2022/04/22 10:13:33;;;;;;;13.50;10.82;;;;;;;9.35;62.87;98046.84;5128444;28;20085;-70
2022/04/22 10:16:06;;;;;;;18.08;12.75;;;;;;;9.21;63.12;98036.41;5128650;28;20295;-70
2022/04/22 10:18:39;;;;;;;13.57;11.40;;;;;;;9.45;62.78;98082.31;5128459;28;20039;-70
2022/04/22 10:21:11;;;;;;;18.77;14.27;;;;;;;8.62;63.29;97959.47;5127608;28;20103;-69
2022/04/22 10:23:47;;;;;;;14.85;12.52;;;;;;;4.27;63.91;97213.06;5128549;28;20047;-70
2022/04/22 10:26:19;;;;;;;14.95;12.45;;;;;;;9.47;62.13;98071.63;5128346;27;20039;-69
2022/04/22 10:28:52;;;;;;;13.68;11.55;;;;;;;8.49;63.90;97909.31;5128491;28;20039;-69
2022/04/22 10:31:27;;;;;;;14.55;12.88;;;;;;;9.56;63.94;98081.53;5128601;28;20089;-70
2022/04/22 10:34:06;;;;;;;19.75;12.20;;;;;;;9.21;65.32;98028.47;5128383;28;20040;-70
2022/04/22 10:36:40;;;;;;;17.15;13.57;;;;;;;9.46;64.34;98075.22;5128164;28;20044;-70
2022/04/22 10:39:32;;;;;;;13.50;12.07;;;;;;;9.51;66.19;98073.94;5128226;28;20366;-70
2022/04/22 10:42:15;;;;;;;15.82;14.13;;;;;;;9.48;65.48;98073.31;5128239;28;20039;-70
2022/04/22 10:47:40;;;;;;;16.52;12.35;;;;;;;9.32;64.78;98029.41;5127715;28;20107;-70
2022/04/22 10:50:27;;;;;;;14.53;12.23;;;;;;;9.42;65.96;98047.28;5127792;28;20042;-70
2022/04/22 10:53:04;;;;;;;15.55;12.98;;;;;;;9.66;64.76;98076.44;5127183;28;20048;-70
2022/04/22 10:55:39;;;;;;;18.60;13.18;;;;;;;9.29;66.13;98031.41;5127601;28;20036;-70
2022/04/22 10:58:21;;;;;;;17.33;12.15;;;;;;;9.35;65.99;98030.16;5126713;28;20039;-69
2022/04/22 11:00:57;;;;;;;16.00;11.25;;;;;;;9.36;64.03;98030.03;5127596;28;20078;-71
2022/04/22 11:03:34;;;;;;;14.55;12.13;;;;;;;8.16;65.13;97817.47;5126569;28;20181;-70
2022/04/22 11:06:08;;;;;;;13.75;11.63;;;;;;;9.40;64.63;98026.25;5127433;28;20047;-70
2022/04/22 11:08:41;;;;;;;14.18;11.23;;;;;;;9.67;64.90;98071.03;5126765;28;20046;-70
2022/04/22 11:11:19;;;;;;;13.48;10.45;;;;;;;9.69;65.38;98077.06;5127440;28;20085;-70
2022/04/22 11:13:52;;;;;;;14.70;12.15;;;;;;;9.65;64.61;98067.66;5127743;28;20039;-70
2022/04/22 11:16:29;;;;;;;15.20;11.52;;;;;;;7.65;64.60;97770.00;5127201;28;20321;-70
2022/04/22 11:19:23;;;;;;;15.25;10.63;;;;;;;9.46;65.81;98036.38;5127459;27;20133;-69
2022/04/22 11:21:58;;;;;;;15.13;11.13;;;;;;;9.66;64.35;98079.94;5127177;28;20093;-68
2022/04/22 11:24:33;;;;;;;10.65;9.30;;;;;;;9.45;64.27;98028.56;5126903;28;20081;-69
2022/04/22 11:27:10;;;;;;;11.20;9.30;;;;;;;8.66;64.80;97918.72;5126282;28;20043;-68
2022/04/22 11:29:43;;;;;;;12.05;10.70;;;;;;;8.97;64.14;97963.16;5126848;28;20052;-68
2022/04/22 11:32:21;;;;;;;11.23;9.27;;;;;;;9.71;65.29;98056.63;5127078;28;20349;-68
2022/04/22 11:35:19;;;;;;;12.18;9.43;;;;;;;9.81;66.24;98068.25;5126945;28;20063;-69
2022/04/22 11:37:59;;;;;;;12.50;9.77;;;;;;;9.55;65.68;98024.31;5126055;28;20097;-69
2022/04/22 11:40:35;;;;;;;12.55;9.80;;;;;;;9.54;64.70;98031.41;5126892;28;20081;-74
2022/04/22 11:43:10;;;;;;;12.25;9.82;;;;;;;9.77;65.38;98077.34;5125830;28;20036;-69
2022/04/22 11:45:44;;;;;;;12.05;10.75;;;;;;;9.52;65.93;98083.56;5126752;28;20039;-70
2022/04/22 11:48:21;;;;;;;11.93;10.17;;;;;;;9.48;66.42;98091.81;5126668;28;20097;-69
2022/04/22 11:50:54;;;;;;;14.63;11.07;;;;;;;9.33;65.92;98088.41;5127141;28;20386;-70
2022/04/22 11:53:29;;;;;;;13.70;11.68;;;;;;;9.27;66.12;98089.69;5126972;28;20333;-70
2022/04/22 11:56:02;;;;;;;10.85;9.73;;;;;;;9.27;65.86;98094.97;5126460;28;20039;-70
2022/04/22 11:58:36;;;;;;;12.60;10.25;;;;;;;9.31;66.37;98087.69;5125558;28;20058;-70
2022/04/22 12:06:48;;;;;;;11.93;10.00;;;;;;;9.24;66.17;98091.72;5125295;28;20043;-70
2022/04/22 12:09:20;;;;;;;12.07;10.15;;;;;;;9.27;65.79;98086.22;5125249;28;20043;-70
2022/04/22 12:11:53;;;;;;;13.25;10.98;;;;;;;8.52;66.59;97943.44;5125950;28;20039;-70
2022/04/22 12:14:28;;;;;;;9.48;8.52;;;;;;;9.42;66.51;98074.59;5125289;28;20035;-70
2022/04/22 12:17:03;;;;;;;13.30;9.98;;;;;;;9.45;65.64;98077.00;5125811;28;20044;-70
2022/04/22 12:19:36;;;;;;;12.63;11.20;;;;;;;7.53;66.63;97778.75;5126157;28;20096;-70
2022/04/22 12:22:08;;;;;;;12.05;10.75;;;;;;;9.48;66.66;98075.94;5124992;28;20043;-71
2022/04/22 12:24:43;;;;;;;12.63;10.43;;;;;;;8.25;66.59;97863.50;5125205;28;20057;-70
2022/04/22 12:27:21;;;;;;;12.27;10.73;;;;;;;9.21;68.69;98017.91;5125640;28;20093;-70
2022/04/22 12:30:02;;;;;;;12.55;9.82;;;;;;;9.60;68.16;98073.28;5125964;28;20287;-70
2022/04/22 12:32:36;;;;;;;11.38;9.48;;;;;;;9.62;66.74;98078.47;5125938;28;20040;-70
2022/04/22 12:35:15;;;;;;;10.45;9.13;;;;;;;9.70;67.58;98070.81;5125621;28;20096;-70
2022/04/22 12:37:52;;;;;;;12.27;10.20;;;;;;;9.68;67.38;98071.88;5124834;28;20043;-70
2022/04/22 12:40:26;;;;;;;10.50;9.40;;;;;;;9.38;66.79;98011.41;5125928;28;20031;-70
2022/04/22 12:43:26;;;;;;;10.18;8.73;;;;;;;9.74;68.92;98066.16;5125960;28;20036;-72
2022/04/22 12:52:12;;;;;;;12.93;10.70;;;;;;;9.66;66.90;98066.69;5125798;28;20046;-70
2022/04/22 12:54:41;;;;;;;12.93;10.65;;;;;;;9.69;67.65;98057.69;5125496;28;20093;-70
2022/04/22 12:57:12;;;;;;;13.13;10.25;;;;;;;9.66;67.49;98063.22;5125597;28;20092;-71
2022/04/22 12:59:46;;;;;;;11.00;8.90;;;;;;;9.72;67.76;98060.97;5125812;28;20036;-70
2022/04/22 13:02:16;;;;;;;11.75;8.57;;;;;;;9.74;67.57;98050.28;5124592;28;20056;-70
2022/04/22 13:04:56;;;;;;;12.73;10.07;;;;;;;9.72;70.23;98053.03;5125785;28;20125;-70
2022/04/22 13:07:40;;;;;;;10.80;9.23;;;;;;;9.75;69.48;98049.31;5125664;28;20048;-70
2022/04/22 13:10:13;;;;;;;12.25;10.45;;;;;;;9.72;67.78;98049.53;5125653;28;20140;-70
2022/04/22 13:12:46;;;;;;;11.30;10.10;;;;;;;9.21;67.81;97973.81;5125835;28;20044;-70